Date,TemperatureHighF,TemperatureAvgF,TemperatureLowF,DewpointHighF,DewpointAvgF,DewpointLowF,HumidityHigh,HumidityAvg,HumidityLow,PressureMaxIn,PressureMinIn,WindSpeedMaxMPH,WindSpeedAvgMPH,GustSpeedMaxMPH,PrecipitationSumIn
2013-1-1,50,47,43,49,42,30,97,85,54,30.14,29.94,6,0,6,0.92
2013-1-2,50,43,38,49,40,35,99,89,79,30.16,29.91,16,5,16,0.14
2013-1-3,44,37,32,35,29,24,91,75,63,30.33,30.12,19,4,19,0.03
2013-1-4,49,35,24,27,22,16,88,61,27,30.39,30.29,20,3,20,0.03
2013-1-5,48,37,24,36,24,20,87,63,35,30.40,30.26,9,0,9,0.02
2013-1-6,46,40,37,37,34,31,90,81,66,30.28,30.15,22,5,22,0.00
2013-1-7,53,41,28,32,28,24,88,62,35,30.39,30.24,18,3,18,0.00
2013-1-8,50,44,36,39,33,28,74,65,55,30.42,30.32,15,3,15,0.00
2013-1-9,62,56,49,50,46,38,84,71,62,30.42,30.33,12,1,12,0.00
2013-1-10,65,60,56,56,52,48,93,75,63,30.40,30.21,22,5,24,0.00
2013-1-11,66,62,58,62,60,56,97,94,84,30.22,30.08,24,4,24,0.31
2013-1-12,72,64,60,63,59,55,98,84,60,30.13,30.02,15,1,15,0.01
2013-1-13,70,64,60,60,58,55,92,80,64,30.09,29.99,20,4,20,0.05
2013-1-14,64,56,47,62,55,46,97,94,90,30.11,29.98,17,3,17,0.72
2013-1-15,62,55,48,62,54,46,100,97,95,30.11,29.92,18,2,18,0.38
2013-1-16,63,58,52,63,56,50,100,95,88,29.98,29.86,17,2,17,0.30
2013-1-17,55,48,36,54,46,30,97,93,79,30.24,29.66,33,4,33,0.10
2013-1-18,54,40,30,31,26,17,85,60,25,30.50,30.25,13,2,13,0.16
2013-1-19,54,40,28,30,26,21,91,63,28,30.48,30.23,12,1,12,0.06
2013-1-20,59,44,31,36,31,27,88,63,32,30.23,30.10,22,4,22,0.00
2013-1-21,54,41,32,33,25,15,92,58,33,30.16,30.06,27,6,27,0.00
2013-1-22,40,33,27,16,10,5,50,39,27,30.33,30.13,23,8,23,0.00
2013-1-23,48,38,28,36,19,8,63,47,35,30.38,30.16,23,4,23,0.00
2013-1-24,48,43,31,38,25,12,77,51,23,30.39,30.10,24,7,24,0.00
2013-1-25,36,30,26,33,18,6,92,65,35,30.42,30.17,25,5,25,0.02
2013-1-26,52,41,34,36,32,26,96,73,44,30.30,30.15,17,5,17,0.01
2013-1-27,46,40,32,33,29,26,79,65,55,30.50,30.29,18,5,18,0.00
2013-1-28,50,44,40,43,36,29,93,74,59,30.43,30.29,12,1,12,0.00
2013-1-29,69,55,40,60,51,38,97,86,62,30.29,29.95,15,2,16,0.07
2013-1-30,66,58,41,62,55,31,94,88,68,29.95,29.52,36,9,36,1.15
2013-1-31,45,39,33,31,23,18,69,54,34,30.15,29.75,35,10,36,0.02
2013-2-1,40,34,25,28,14,3,68,45,26,30.40,30.08,33,8,33,0.01
2013-2-2,47,33,19,37,21,5,92,65,19,30.41,30.13,21,2,22,0.35
2013-2-3,51,41,33,36,30,23,93,69,34,30.13,29.99,30,8,30,0.01
2013-2-4,48,38,28,31,26,20,83,63,37,30.15,30.01,11,1,11,0.00
2013-2-5,54,45,33,46,37,28,91,75,57,30.04,29.97,16,2,16,0.00
2013-2-6,66,50,36,45,35,27,97,62,24,30.17,30.03,16,2,16,0.00
2013-2-7,50,46,43,44,37,27,93,72,41,30.14,29.94,20,5,20,0.17
2013-2-8,54,47,36,46,40,29,94,78,44,30.16,29.92,22,5,22,0.01
2013-2-9,60,44,28,30,25,19,90,53,21,30.30,30.14,15,2,15,0.00
2013-2-10,56,48,42,46,36,25,96,65,41,30.33,30.09,23,7,23,0.84
2013-2-11,54,50,46,53,49,45,100,95,87,30.12,30.03,13,2,13,0.50
2013-2-12,56,48,43,45,38,25,89,71,31,30.10,29.84,15,2,15,0.05
2013-2-13,49,43,35,45,39,31,95,86,71,29.96,29.75,27,6,27,0.13
2013-2-14,54,42,33,33,30,27,85,65,36,30.08,29.95,15,4,18,0.02
2013-2-15,60,45,28,40,32,26,94,65,31,30.13,29.98,23,4,23,0.04
2013-2-16,40,35,27,33,20,6,78,55,28,30.14,29.93,36,9,36,0.01
2013-2-17,42,31,22,16,10,3,62,44,23,30.30,30.14,29,6,29,0.00
2013-2-18,58,41,22,28,21,14,83,49,27,30.38,30.11,22,4,22,0.00
2013-2-19,54,43,37,42,29,14,95,63,32,30.15,29.98,30,5,30,0.28
2013-2-20,51,39,31,17,13,8,51,36,20,30.18,30.10,20,6,20,0.00
2013-2-21,60,45,28,39,20,11,85,40,18,30.20,29.97,19,4,19,0.19
2013-2-22,43,40,38,39,38,35,98,92,85,30.19,30.06,25,7,25,0.90
2013-2-23,50,45,40,47,42,38,96,91,81,30.07,29.85,17,2,18,0.11
2013-2-24,64,50,39,44,36,30,96,65,30,30.01,29.89,17,3,17,0.06
2013-2-25,49,43,37,36,29,24,91,59,43,30.06,29.89,29,8,29,0.09
2013-2-26,44,39,35,41,36,32,96,89,69,29.89,29.60,29,7,29,0.06
2013-2-27,56,46,39,34,31,29,75,58,39,29.88,29.77,31,9,31,0.06
2013-2-28,45,39,36,32,26,23,69,60,51,29.99,29.82,28,9,28,0.03
2013-3-1,38,36,36,27,26,24,67,65,62,30.00,29.89,17,10,17,0.00
2013-3-2,38,35,32,29,26,22,86,70,55,30.02,29.86,26,11,26,0.02
2013-3-3,39,32,28,24,18,14,68,56,39,30.09,29.92,27,8,27,0.00
2013-3-4,57,41,27,25,19,13,64,43,27,30.18,29.99,10,1,10,0.00
2013-3-5,64,50,37,53,38,23,87,64,35,30.06,29.62,37,8,37,0.22
2013-3-6,37,33,30,27,23,17,78,67,56,30.18,29.84,35,12,35,0.01
2013-3-7,57,40,29,32,27,21,81,61,32,30.26,30.09,20,5,20,0.00
2013-3-8,64,43,27,42,25,18,89,54,23,30.33,30.17,14,2,14,0.03
2013-3-9,58,50,38,30,26,18,60,40,29,30.33,30.18,16,2,16,0.00
2013-3-10,66,56,48,45,34,27,67,43,24,30.23,30.06,22,8,23,0.00
2013-3-11,61,54,48,54,50,44,96,84,64,30.07,29.79,22,7,24,1.21
2013-3-12,55,46,38,46,34,30,94,64,41,30.09,29.79,24,9,26,0.00
2013-3-13,50,42,33,30,23,17,70,49,29,30.25,30.07,29,9,32,0.00
2013-3-14,53,40,27,26,16,11,62,41,22,30.38,30.19,18,6,20,0.00
2013-3-15,72,54,37,42,34,24,76,50,29,30.22,29.92,21,5,29,0.00
2013-3-16,75,64,52,43,40,36,64,43,26,29.96,29.83,25,8,27,0.00
2013-3-17,70,61,50,52,46,39,76,60,42,29.97,29.86,16,3,19,0.00
2013-3-18,58,50,44,54,46,40,95,85,75,30.00,29.81,26,6,26,0.23
2013-3-19,63,53,45,45,27,9,88,46,14,30.06,29.87,26,6,26,0.00
2013-3-20,58,48,42,20,9,-5,33,22,9,30.10,29.84,23,5,23,0.00
2013-3-21,48,43,31,20,9,-2,37,25,14,29.97,29.83,29,13,29,0.00
2013-3-22,54,44,34,28,19,8,53,38,26,30.05,29.92,11,1,12,0.00
2013-3-23,54,48,43,45,40,28,85,74,45,30.00,29.79,17,2,20,0.78
2013-3-24,50,49,44,45,42,24,85,78,45,29.80,29.50,34,6,34,0.95
2013-3-25,44,38,34,28,20,16,62,48,43,30.05,29.65,33,14,33,0.13
2013-3-26,41,36,33,24,21,18,68,55,41,30.24,29.96,24,11,28,0.00
2013-3-27,53,43,39,21,19,11,47,40,20,30.27,30.18,24,8,24,0.00
2013-3-28,59,43,30,28,23,12,69,47,21,30.33,30.17,25,2,25,0.00
2013-3-29,68,52,35,30,23,12,73,38,14,30.33,30.16,17,2,17,0.00
2013-3-30,75,60,49,53,36,27,84,46,19,30.16,29.97,22,2,22,0.44
2013-3-31,68,61,57,56,52,49,87,73,55,30.00,29.81,18,4,18,0.31
2013-4-1,70,62,55,53,41,22,84,53,19,29.98,29.81,25,5,25,0.00
2013-4-2,66,56,44,36,25,11,68,35,14,30.13,29.97,20,5,20,0.00
2013-4-3,60,52,47,42,26,18,78,39,20,30.17,30.04,16,2,16,0.32
2013-4-4,50,44,41,41,36,31,82,73,51,30.16,29.94,28,7,28,0.28
2013-4-5,69,53,42,42,35,20,84,57,17,30.03,29.87,21,3,21,0.00
2013-4-6,74,59,41,39,29,21,74,38,14,30.16,30.03,22,3,22,0.00
2013-4-7,76,63,47,44,38,31,67,41,22,30.19,30.00,18,2,18,0.00
2013-4-8,81,68,58,50,47,42,66,49,27,30.11,29.98,19,2,19,0.00
2013-4-9,83,71,55,53,50,45,81,51,27,30.15,30.02,12,1,12,0.00
2013-4-10,86,73,57,54,50,45,80,49,26,30.11,29.87,19,2,21,0.00
2013-4-11,80,71,62,64,56,51,83,59,43,29.91,29.60,22,4,22,0.35
2013-4-12,69,64,56,60,44,25,85,55,22,29.88,29.58,25,9,26,0.61
2013-4-13,74,62,50,38,30,21,58,33,16,30.00,29.85,22,4,22,0.00
2013-4-14,64,58,50,52,42,31,80,57,35,30.04,29.88,21,4,21,0.08
2013-4-15,76,65,57,57,53,51,86,68,41,30.12,29.90,11,2,13,0.03
2013-4-16,83,70,62,60,57,51,86,64,37,30.22,30.09,12,2,12,0.00
2013-4-17,88,74,65,60,58,46,80,59,33,30.20,30.02,15,2,15,0.22
2013-4-18,81,71,63,60,56,49,85,62,38,30.11,29.86,19,4,19,0.00
2013-4-19,72,61,48,61,51,34,82,70,56,30.00,29.70,26,7,26,0.73
2013-4-20,67,53,39,36,26,13,63,40,13,30.20,29.98,19,5,19,0.00
2013-4-21,68,58,43,36,30,24,71,37,19,30.32,30.18,17,5,23,0.00
2013-4-22,70,59,50,39,36,33,58,43,28,30.30,30.11,20,5,20,0.00
2013-4-23,76,62,50,47,35,30,64,39,23,30.21,30.01,17,2,17,0.00
2013-4-24,77,64,55,59,52,46,84,67,38,30.08,30.00,22,4,24,0.16
2013-4-25,74,58,45,57,37,12,84,54,10,30.28,30.05,18,5,18,0.00
2013-4-26,75,59,39,41,32,23,81,42,17,30.36,30.21,21,4,21,0.00
2013-4-27,67,59,55,53,49,37,84,71,36,30.31,30.12,18,4,23,0.38
2013-4-28,58,57,55,54,52,50,87,85,82,30.19,29.98,23,3,23,0.85
2013-4-29,77,63,57,61,52,44,88,71,33,30.03,29.88,7,1,12,0.16
2013-4-30,81,65,53,61,52,42,85,66,27,30.05,29.89,10,2,14,0.04
2013-5-1,70,65,62,57,52,48,78,63,48,30.17,30.03,22,7,22,0.03
2013-5-2,65,62,60,55,53,51,81,73,66,30.17,30.09,23,6,23,0.02
2013-5-3,62,60,59,54,53,47,83,76,60,30.11,29.95,27,10,27,0.06
2013-5-4,60,55,51,52,48,44,85,79,63,29.96,29.81,28,9,28,0.02
2013-5-5,64,57,52,53,50,47,85,79,63,29.84,29.70,24,5,24,0.02
2013-5-6,58,52,48,49,46,43,87,79,62,29.87,29.75,18,1,18,0.02
2013-5-7,72,60,52,52,48,39,85,66,37,29.95,29.83,18,2,18,0.02
2013-5-8,77,64,54,54,50,47,83,64,37,30.04,29.89,21,4,21,0.01
2013-5-9,84,70,57,58,52,44,84,57,25,30.10,29.96,16,2,16,0.02
2013-5-10,81,69,57,58,54,48,84,61,36,30.08,29.89,21,1,21,0.02
2013-5-11,79,69,60,63,57,53,83,65,44,29.98,29.81,17,3,17,0.01
2013-5-12,68,62,52,56,40,21,78,50,19,30.08,29.85,25,7,25,0.01
2013-5-13,68,57,41,37,29,16,77,38,17,30.20,30.04,24,2,24,0.00
2013-5-14,81,63,43,50,41,30,82,50,19,30.23,30.03,15,2,15,0.01
2013-5-15,87,74,59,54,50,43,76,46,22,30.12,29.93,17,4,19,0.01
2013-5-16,87,72,61,56,54,48,77,56,28,30.04,29.90,12,1,12,0.00
2013-5-17,86,72,59,61,54,43,83,56,24,30.06,29.97,16,2,16,0.02
2013-5-18,77,70,65,64,61,57,84,73,54,30.05,29.98,12,1,12,0.04
2013-5-19,70,68,66,65,63,61,88,85,82,30.05,29.94,19,2,19,0.06
2013-5-20,90,76,66,67,62,58,87,67,36,30.07,29.92,11,1,11,0.01
2013-5-21,95,79,68,67,63,56,84,61,28,30.02,29.82,15,1,15,0.03
2013-5-22,88,76,66,65,62,55,83,63,35,29.94,29.79,14,2,14,0.02
2013-5-23,84,75,68,64,57,49,82,56,31,29.92,29.83,25,5,25,0.01
2013-5-24,76,67,59,52,43,27,75,45,18,30.17,29.90,22,6,22,0.01
2013-5-25,81,65,47,46,38,23,81,43,14,30.27,30.14,17,2,17,0.01
2013-5-26,86,69,51,50,42,33,83,46,17,30.22,30.07,13,1,13,0.01
2013-5-27,90,74,59,57,51,44,76,49,22,30.19,30.05,14,1,14,0.00
2013-5-28,88,77,68,59,55,48,67,49,28,30.19,30.04,17,2,17,0.00
2013-5-29,84,74,63,60,58,54,81,58,39,30.18,30.06,18,3,18,0.00
2013-5-30,84,75,69,63,60,56,80,62,40,30.20,30.07,16,3,16,0.00
2013-5-31,85,78,70,63,60,56,77,55,37,30.16,30.01,17,4,21,0.00
2013-6-1,86,78,71,63,62,60,74,59,43,30.08,29.93,20,3,20,0.00
2013-6-2,90,75,71,67,65,55,83,71,41,30.01,29.82,25,2,25,0.69
2013-6-3,86,76,68,67,63,54,87,67,36,29.95,29.79,18,2,18,0.01
2013-6-4,90,77,64,64,60,53,83,59,30,29.96,29.88,12,1,12,0.00
2013-6-5,87,76,69,67,65,61,86,70,47,30.02,29.84,17,2,17,1.08
2013-6-6,81,72,68,66,64,62,86,77,59,29.90,29.70,12,1,12,0.00
2013-6-7,86,73,68,66,64,60,86,74,44,29.80,29.62,30,2,30,0.54
2013-6-8,87,75,66,65,62,56,87,66,36,30.01,29.78,13,2,13,0.00
2013-6-9,88,76,69,68,66,62,84,72,44,30.04,29.94,22,2,22,0.67
2013-6-10,83,74,67,68,65,60,85,74,49,29.99,29.86,24,2,24,0.35
2013-6-11,90,80,73,69,68,64,83,68,45,30.04,29.88,19,4,19,0.05
2013-6-12,95,83,72,71,68,62,84,63,36,30.01,29.88,18,2,18,0.01
2013-6-13,82,78,75,71,69,68,80,75,66,29.91,29.84,21,3,21,0.00
2013-7-2,90,78,71,67,64,59,83,66,36,30.01,29.85,8,2,18,0.00
2013-7-3,76,72,69,71,66,63,87,81,69,30.11,29.99,9,2,17,1.85
2013-7-4,79,72,69,70,67,64,86,83,69,30.13,30.04,8,3,22,0.70
2013-7-5,84,74,71,69,67,64,85,78,53,30.15,30.07,10,2,23,0.53
2013-7-6,86,76,70,71,67,64,87,75,49,30.12,30.01,10,3,22,0.84
2013-7-7,85,76,72,70,68,64,87,76,52,30.12,30.04,5,1,13,0.06
2013-7-8,83,81,74,70,67,66,85,65,57,30.17,30.05,4,0,7,0.00
2013-7-9,83,78,73,70,67,56,85,70,57,30.18,30.01,3,0,3,0.00
2013-7-10,93,80,74,71,69,52,82,70,41,30.11,29.88,14,0,14,0.00
2013-7-11,82,76,73,69,68,67,85,77,66,29.97,29.82,6,1,6,0.00
2013-7-12,90,80,72,76,68,54,85,68,44,29.94,29.78,11,1,12,0.00
2013-7-13,76,73,71,67,64,62,78,74,69,30.07,29.86,17,3,17,0.01
2013-7-14,77,74,73,70,68,66,83,80,76,30.22,29.99,19,2,19,0.15
2013-7-15,84,78,73,69,67,64,81,71,57,30.29,30.13,19,4,19,0.00
2013-7-16,90,81,75,72,66,62,80,63,40,30.32,30.15,11,0,11,0.00
2013-7-17,91,81,74,69,67,53,80,64,43,30.30,30.12,7,0,7,0.01
2013-7-18,75,71,70,66,65,62,84,82,74,30.23,30.03,10,0,10,0.00
2013-7-19,84,75,70,69,68,65,83,78,59,30.13,29.92,3,0,3,0.00
2013-7-20,84,77,72,70,67,60,83,72,60,30.05,29.89,22,0,22,0.00
2013-7-21,83,77,72,69,67,59,85,72,60,30.03,29.88,18,1,18,0.00
2013-7-22,87,78,72,70,68,66,85,72,51,30.02,29.80,14,3,17,0.00
2013-7-23,84,76,71,68,67,62,83,73,53,29.94,29.78,19,4,20,0.00
2013-7-24,86,77,72,70,68,64,84,76,56,29.86,29.74,16,3,16,0.00
2013-7-25,92,80,70,70,65,58,84,64,34,30.00,29.76,15,1,15,0.01
2013-7-26,88,76,70,70,66,58,82,71,45,30.03,29.90,15,1,15,0.06
2013-7-27,83,77,71,69,66,62,84,70,53,29.98,29.84,14,0,14,0.00
2013-7-28,90,78,69,67,65,60,85,67,39,29.97,29.85,13,1,13,0.00
2013-7-29,88,76,68,67,60,46,83,61,27,30.13,29.95,13,2,15,0.00
2013-7-30,92,77,62,66,59,54,83,59,29,30.21,30.05,10,1,10,0.00
2013-7-31,82,77,73,69,67,64,81,72,57,30.12,29.90,13,1,13,0.05
2013-8-1,88,77,70,69,67,64,85,72,47,29.99,29.84,14,1,14,0.26
2013-8-2,91,78,67,68,63,56,84,65,33,30.02,29.88,10,0,10,0.00
2013-8-3,86,75,67,69,65,61,83,71,46,30.05,29.92,15,2,15,0.00
2013-8-4,90,80,72,72,66,56,83,63,37,30.02,29.88,17,3,17,0.00
2013-8-5,90,77,68,68,63,59,82,65,39,30.05,29.89,14,1,14,0.00
2013-8-6,88,80,72,68,66,59,81,62,39,30.00,29.88,6,0,7,0.00
2013-8-7,85,76,72,71,69,60,86,78,57,30.06,29.91,14,0,14,1.82
2013-8-8,86,78,74,71,69,66,83,75,53,30.06,29.94,11,1,11,0.01
2013-8-9,86,77,74,72,70,69,85,80,59,30.05,29.95,14,0,14,0.00
2013-8-10,92,80,74,73,69,66,84,71,42,30.06,30.00,9,1,20,0.00
2013-8-11,93,80,71,71,68,65,85,69,41,30.10,29.99,11,2,23,0.53
2013-8-12,93,78,72,72,68,66,84,73,43,30.05,29.92,9,1,23,0.36
2013-8-13,87,79,73,70,68,65,85,70,52,29.95,29.81,19,2,19,0.02
2013-8-14,81,77,72,70,66,62,81,71,57,29.96,29.82,13,1,13,0.00
2013-8-15,74,71,69,64,57,52,75,62,49,30.05,29.95,26,5,26,0.00
2013-8-16,71,68,64,60,57,55,82,69,62,30.07,29.99,18,4,18,0.03
2013-8-17,68,66,65,62,59,55,85,77,65,30.11,30.04,21,3,21,0.18
2013-8-18,76,70,67,67,64,62,85,81,70,30.15,30.06,12,1,12,0.46
2013-8-19,78,73,70,67,66,65,85,79,67,30.10,30.01,19,2,19,2.03
2013-8-20,81,75,71,69,67,65,82,75,61,30.12,30.03,14,1,14,0.00
2013-8-21,75,74,72,69,68,67,84,82,80,30.17,30.06,10,0,10,0.36
2013-8-22,92,77,71,70,67,64,85,73,42,30.11,29.98,10,1,19,0.63
2013-8-23,91,79,68,70,66,59,85,67,34,30.03,29.90,10,1,21,0.01
2013-8-24,82,75,70,65,63,60,82,67,50,30.20,29.97,10,3,19,0.00
2013-8-25,81,74,66,63,57,52,73,56,37,30.31,30.19,7,3,17,0.00
2013-8-26,84,76,63,63,58,54,83,58,36,30.26,30.09,11,1,11,0.00
2013-8-27,90,76,63,67,61,56,83,63,34,30.11,29.98,10,0,10,0.00
2013-8-28,92,79,68,70,65,61,83,66,37,30.00,29.91,13,1,13,0.01
2013-8-29,93,82,72,71,68,64,81,65,41,29.94,29.85,14,2,14,0.00
2013-8-30,90,80,74,72,69,66,82,71,46,29.97,29.86,13,1,13,0.01
2013-8-31,95,80,73,72,68,59,85,69,35,29.91,29.81,27,1,27,0.28
2013-9-1,86,79,72,70,68,65,84,70,52,29.89,29.79,16,2,16,0.00
2013-9-2,82,76,72,69,68,66,85,76,62,29.92,29.81,18,2,18,0.02
2013-9-3,90,79,72,69,66,58,85,66,36,29.92,29.81,15,2,15,0.00
2013-9-4,94,78,67,67,63,49,83,63,23,30.04,29.90,11,0,11,0.01
2013-9-5,89,78,68,67,64,58,83,65,36,30.07,29.99,9,0,9,0.00
2013-9-6,85,76,67,66,62,57,84,65,42,30.11,30.00,17,2,17,0.01
2013-9-7,90,76,65,66,62,56,84,64,33,30.08,29.95,7,0,8,0.00
2013-9-8,90,77,65,67,63,58,84,65,35,29.97,29.88,13,1,13,0.01
2013-9-9,89,78,69,68,64,59,82,63,37,30.05,29.93,16,1,16,0.00
2013-9-10,89,78,70,67,65,61,82,66,40,30.16,30.05,13,1,13,0.00
2013-9-11,93,79,68,67,62,48,84,62,23,30.17,30.04,12,0,12,0.00
2013-9-12,90,77,69,68,65,61,83,67,38,30.04,29.85,16,2,16,0.00
2013-9-13,86,76,62,68,59,46,83,59,28,29.85,29.76,20,3,20,0.00
2013-9-14,80,68,54,58,52,46,83,60,32,30.02,29.84,20,2,20,0.00
2013-9-15,84,72,63,66,60,56,80,66,44,30.12,30.02,18,2,18,0.00
2013-9-16,88,76,67,65,60,49,83,62,27,30.09,30.00,14,1,14,0.00
2013-9-17,76,72,68,62,56,52,80,59,47,30.20,30.05,21,5,21,0.00
2013-9-18,76,70,65,59,55,52,79,60,48,30.20,30.09,15,2,15,0.00
2013-9-19,86,72,61,64,58,54,83,64,34,30.15,30.02,11,0,11,0.00
2013-9-20,88,75,63,64,59,53,84,62,31,30.04,29.86,15,1,15,0.00
2013-9-21,73,70,65,67,63,59,87,80,68,29.88,29.65,18,2,18,1.11
2013-9-22,83,69,57,60,56,48,85,66,31,29.83,29.71,12,1,12,0.01
2013-9-23,79,69,60,59,56,50,84,65,38,29.97,29.83,17,2,17,0.00
2013-9-24,71,68,65,61,58,56,83,73,64,29.99,29.85,14,2,14,0.11
2013-9-25,66,65,64,61,60,57,85,82,77,29.86,29.79,16,2,16,1.14
2013-9-26,82,70,61,61,58,55,85,68,43,29.97,29.83,11,1,11,0.00
2013-9-27,79,69,57,62,55,50,85,62,39,30.09,29.96,17,2,17,0.00
2013-9-28,75,67,59,55,52,48,80,61,39,30.18,30.07,18,2,18,0.00
2013-9-29,74,65,55,56,51,47,83,62,39,30.13,30.00,15,1,15,0.00
2013-9-30,80,66,56,58,52,47,86,66,32,30.06,29.95,15,1,15,0.00
2013-10-1,84,65,56,59,54,51,87,71,35,30.12,30.02,9,0,9,0.00
2013-10-5,88,74,61,63,59,53,84,64,32,30.09,29.97,5,1,13,0.01
2013-10-6,84,72,63,65,60,56,85,68,39,29.98,29.81,9,2,19,1.07
2013-10-7,75,66,58,64,55,45,87,70,35,29.93,29.75,9,3,16,0.22
2013-10-8,75,66,57,54,50,46,83,60,39,30.10,29.91,11,4,22,0.00
2013-10-9,76,64,57,53,46,39,82,54,32,30.16,30.06,9,2,19,0.00
2013-10-10,78,64,52,54,51,48,86,64,34,30.11,29.97,11,2,21,0.00
2013-10-11,79,78,78,54,53,52,42,41,41,29.97,29.93,14,12,14,0.01
2013-10-12,78,67,56,56,55,33,85,68,41,30.09,29.91,12,4,12,0.00
2013-10-13,61,61,61,56,56,56,84,84,84,30.18,30.07,0,0,0,0.00
2013-10-14,61,61,61,56,56,56,84,84,84,30.20,30.10,0,0,0,0.00
2013-10-15,65,45,-5,56,42,0,84,60,71,30.15,30.02,0,0,0,0.00
2013-10-16,65,65,65,56,56,56,72,72,72,30.05,29.95,0,0,0,0.00
2013-10-17,65,55,-5,56,48,0,72,62,72,29.96,29.87,0,0,0,0.00
2013-10-18,73,43,-5,51,29,0,52,25,36,29.99,29.88,9,0,9,0.01
2013-10-19,72,72,72,46,46,46,39,39,39,29.95,29.89,0,0,0,0.00
2013-10-20,72,72,72,46,46,46,39,39,39,30.04,29.94,0,0,0,0.00
2013-10-21,72,72,72,46,46,46,39,39,39,30.11,29.99,0,0,0,0.00
2013-10-22,72,72,72,46,46,46,39,39,39,30.02,29.82,0,0,0,0.00
2013-10-23,72,72,72,46,46,46,39,39,39,30.05,29.80,0,0,0,0.00
2013-10-24,72,72,72,46,46,46,39,39,39,30.16,30.03,0,0,0,0.00
2013-10-25,72,72,72,46,46,46,39,39,39,30.33,30.16,0,0,0,0.00
2013-10-26,72,72,72,46,46,46,39,39,39,30.30,30.12,0,0,0,0.00
2013-10-27,72,72,72,46,46,46,39,39,39,30.13,30.06,0,0,0,0.00
2013-10-28,72,72,72,46,46,46,39,39,39,30.25,30.11,0,0,0,0.00
2013-10-29,72,56,53,48,48,46,84,79,39,30.31,30.23,0,0,0,0.00
2013-10-30,53,53,53,48,48,48,84,84,84,30.28,30.15,0,0,0,0.00
2013-10-31,53,53,53,48,48,48,84,84,84,30.16,29.78,0,0,0,0.00
2013-11-1,53,53,53,48,48,48,84,84,84,29.85,29.69,0,0,0,0.00
2013-11-2,53,53,53,48,48,48,84,84,84,30.03,29.79,0,0,0,0.00
2013-11-3,53,53,53,48,48,48,84,84,84,30.27,30.02,0,0,0,0.00
2013-11-4,53,53,53,48,48,48,84,84,84,30.42,30.27,0,0,0,0.00
2013-11-5,53,53,53,48,48,48,84,84,84,30.44,30.31,0,0,0,0.00
2013-11-6,53,53,53,48,48,48,84,84,84,30.32,30.10,0,0,0,0.00
2013-11-7,53,53,53,48,48,48,84,84,84,30.17,30.01,0,0,0,0.00
2013-11-8,53,53,53,48,48,48,84,84,84,30.29,30.16,0,0,0,0.00
2013-11-9,53,53,53,48,48,48,84,84,84,30.32,30.19,0,0,0,0.00
2013-11-10,53,53,53,48,48,48,84,84,84,30.24,30.15,0,0,0,0.00
2013-11-11,53,53,53,48,48,48,84,84,84,30.29,30.15,0,0,0,0.00
2013-11-12,53,53,53,48,48,48,84,84,84,30.15,30.09,0,0,0,0.00
2013-11-25,-5,-5,-5,0,0,0,0,0,100,30.42,30.41,0,0,0,0.00